Terminal Aerodrome Forecast
Issued by NWS

Home | Current Version | Previous Version | Text Only | Print | Product List | Glossary On
Versions: 1 2 3 4 5 6 7 8 9 10 11 12 13 14 15 16
000
FTUS42 KTBW 161700
TAFRSW
TAF
KRSW 161733Z 1618/1718 32004KT P6SM VCTS BKN045CB
     FM162000 29006KT P6SM VCTS SCT045CB SCT100 BKN250
     FM170000 29005KT P6SM VCTS SCT035CB SCT100 OVC200
     FM171500 27007KT P6SM VCTS SCT025CB BKN100 OVC150=

USA.gov is the U.S. government's official web portal to all federal, state and local government web resources and services.